KAUH

Details ICAO KAUH
Name AURORA MUNI AL POTTER FLD
Region United States
Timezone America/Chicago (UTC-6.0)
Plans Departing 0
Arriving 2
Stats Elevation 1,804 ft / 550 m (AMSL)
Location 40.894129° -97.994529°
Runways 1
Magnetic Variation 4.019° E
Sunrise 2017-12-17 13:52:21 UTC / 2017-12-17 07:52:21 Local
Sunset 2017-12-17 23:06:51 UTC / 2017-12-17 17:06:51 Local
Advertisement - Login to hide

Runways

ID Width Length Bearing (true) Bearing (mag) Surface Threshold Offset Overrun Length
16 75 ft / 23 m 4,304 ft / 1,312 m 168.80° 164.78° Asphalt 0 ft / 0 m 0 ft / 0 m
34 75 ft / 23 m 4,304 ft / 1,312 m 348.80° 344.78° Asphalt 0 ft / 0 m 0 ft / 0 m

Map

Weather


0- 5 10 15 20 25 30 35+ Temperature / ° C

Clouds and Precipitation
Forecast for 2017-12-18 00:00 UTC. Updated 19 minutes ago

Ground ~20,000 ft ~40,000 ft Winds

METAR

KAUH 172335Z AUTO 34004KT 10SM SCT028 01/M03 A2997 RMK AO2 T00111028

TAF

Not found

Frequencies

Recorded 121.22 MHz AWOS 3
Unicom 122.80 MHz CTAF/UNICOM
Warning: Do not use this data for real-world aviation or navigation. No guarantee of current accuracy is given.